West Navigator — 3ERR2 — position and weather

sailwx.info

Track history (hours):
 
Tides and Currents Weather Stations Pressure Air Temp Water Temp Dewpoint Dewpoint Depression Visibility Wind Speed Wind Dir Waves Ship Positions

West Navigator

Last reported at 2014-Nov-24 03:00 UTC. Time now 2014-Nov-24 04:03 UTC.
Position N 67°18' E 007°24'.

Length 253 m; draft 15 m.

MMSI: 370144000.

Wind from 130 at 16 knots

Waves 2.7 meters (9 feet), 10 second period

Barometer 1008.3 mb
Air temperature 7.2 ° C
Dewpoint 5.6 ° C

Date/timePositionNaut miles runAvg speedWind from/ knotsBaromVisibWave heightAir tempDewpointWater temp
2014-Nov-24 03:00N 67°18' E 007°24'0 0.0 130 / 161008.3 2.7 7.2 5.6
2014-Nov-24 00:00N 67°18' E 007°24'0 0.0 160 / 17 gusting 211009.2 2.6 7.2 6.5
2014-Nov-23 21:00N 67°18' E 007°24'0 0.0 140 / 131010.6 2.2 6.7 5.6
2014-Nov-23 18:00N 67°18' E 007°24'0 0.0 130 / 11 gusting 261012.2 2.8 6.2 3.9
2014-Nov-23 15:10N 67°18' E 007°24'0 0.0 160 / 171013.5 3.0 6.2 2.9
2014-Nov-23 12:00N 67°18' E 007°24'0 0.0 170 / 21 gusting 301014.9 2.7 5.8 2.2
2014-Nov-23 09:00N 67°18' E 007°24'0 0.0 150 / 221016.7 2.4 6.3 1.5
2014-Nov-23 06:00N 67°18' E 007°24'0 0.0 150 / 21 gusting 261018.3 1.6 6.9 3.0
2014-Nov-23 03:00N 67°18' E 007°24'0 0.0 150 / 171019.9 1.1 6.9 3.1
2014-Nov-23 00:00N 67°18' E 007°24'0 0.0 150 / 14 gusting 231021.5 1.0 6.8 3.7
2014-Nov-22 21:00N 67°18' E 007°24'0 0.0 130 / 61023.2 0.9 6.7 4.3
2014-Nov-22 18:00N 67°18' E 007°24'0 0.0 080 / 11 gusting 161024.1 0.8 7.6 5.1
2014-Nov-22 15:00N 67°18' E 007°24'0 0.0 060 / 131025.4 0.9 7.3 5.3
2014-Nov-22 12:00N 67°18' E 007°24'0 0.0 060 / 11 gusting 131026.1 0.9 7.6 4.5
2014-Nov-22 09:00N 67°18' E 007°24'0 0.0 060 / 81026.6 1.0 7.8 4.8
2014-Nov-22 06:00N 67°18' E 007°24'0 0.0 360 / 6 gusting 81026.4 1.0 7.5 5.7
2014-Nov-22 03:00N 67°18' E 007°24'0 0.0 360 / 51026.6 1.4 7.7 5.2
2014-Nov-22 00:00N 67°18' E 007°24'0 0.0 330 / 6 gusting 131026.9 1.1 7.5 5.3
2014-Nov-21 21:00N 67°18' E 007°24'0 0.0 300 / 91027.0 1.1 7.7 5.1
2014-Nov-21 18:00N 67°18' E 007°24'0 0.0 300 / 10 gusting 151026.8 1.2 7.8 5.3
2014-Nov-21 15:00N 67°18' E 007°24'0 0.0 270 / 121026.6 1.3 7.9 6.1
2014-Nov-21 12:00N 67°18' E 007°24'0 0.0 270 / 12 gusting 201027.1 1.6 8.3 4.9
2014-Nov-21 09:00N 67°18' E 007°24'0 0.0 270 / 141027.6 1.5 8.0 5.4
2014-Nov-21 06:00N 67°18' E 007°24'0 0.0 250 / 15 gusting 191026.7 1.6 8.1 5.9
2014-Nov-21 03:00N 67°18' E 007°24'0 0.0 260 / 141026.9 1.6 8.2 6.3
2014-Nov-21 00:00N 67°18' E 007°24'0 0.0 270 / 15 gusting 221027.3 1.3 8.3 5.5
2014-Nov-20 21:00N 67°18' E 007°24'0 0.0 270 / 171026.8 1.1 8.4 6.2
2014-Nov-20 18:00N 67°18' E 007°24'0 0.0 240 / 17 gusting 221026.9 0.9 8.6 7.3
2014-Nov-20 15:00N 67°18' E 007°24'0 0.0 240 / 141027.0 0.9 8.6 7.9
2014-Nov-20 12:00N 67°18' E 007°24'0 0.0 240 / 14 gusting 221027.2 0.8 8.5 7.5
2014-Nov-20 09:00N 67°18' E 007°24'0 0.0 210 / 81027.5 0.8 8.0 6.9
2014-Nov-20 06:00N 67°18' E 007°24'0 0.0 230 / 10 gusting 151027.2 0.8 7.4 6.5
2014-Nov-20 03:00N 67°18' E 007°24'0 0.0 180 / 131028.0 0.9 6.6 6.0
2014-Nov-20 00:00N 67°18' E 007°24'0 0.0 190 / 7 gusting 121029.0 0.9 6.8 3.5
2014-Nov-19 21:00N 67°18' E 007°24'0 0.0 170 / 91029.2 0.9 7.0 2.8
2014-Nov-19 18:00N 67°18' E 007°24'0 0.0 180 / 9 gusting 121029.7 1.1 6.7 3.2
2014-Nov-19 15:10N 67°18' E 007°24'0 0.0 170 / 111029.7 1.0 6.4 4.8
2014-Nov-19 12:00N 67°18' E 007°24'0 0.0 180 / 6 gusting 141029.6 0.9 7.1 3.5
2014-Nov-19 09:00N 67°18' E 007°24'0 0.0 160 / 61029.3 0.9 7.5 4.3
2014-Nov-19 06:00N 67°18' E 007°24'0 0.0 120 / 3 gusting 81028.4 0.8 8.0 4.5
2014-Nov-19 03:00N 67°18' E 007°24'0 0.0 200 / 11028.4 2.2 6.9 5.7
2014-Nov-19 00:00N 67°18' E 007°24'0 0.0 180 / 7 gusting 111027.8 0.8 6.7 6.0
2014-Nov-18 21:00N 67°18' E 007°24'0 0.0 190 / 71027.3 0.7 7.3 5.7
2014-Nov-18 18:00N 67°18' E 007°24'0 0.0 180 / 9 gusting 101026.5 0.8 7.4 6.2
2014-Nov-18 15:00N 67°18' E 007°24'0 0.0 220 / 61025.8 0.7 7.2 6.8
2014-Nov-18 12:00N 67°18' E 007°24'0 0.0 220 / 8 gusting 111024.6 0.8 7.6 6.7
2014-Nov-18 09:00N 67°18' E 007°24'0 0.0 190 / 101023.4 0.8 7.4 6.4
2014-Nov-18 06:00N 67°18' E 007°24'0 0.0 180 / 7 gusting 121021.9 0.8 7.6 5.7
2014-Nov-18 03:00N 67°18' E 007°24'0 0.0 260 / 71021.0 0.8 7.3 5.6
2014-Nov-18 00:00N 67°18' E 007°24'0 0.0 280 / 9 gusting 161019.9 0.9 7.4 5.8
2014-Nov-17 21:00N 67°18' E 007°24'0 0.0 260 / 121018.6 0.9 7.5 5.7
2014-Nov-17 18:00N 67°18' E 007°24'0 0.0 240 / 11 gusting 191017.5 1.0 7.5 5.3
2014-Nov-17 15:00N 67°18' E 007°24'0 0.0 270 / 141016.7 1.2 7.4 5.0
2014-Nov-17 12:00N 67°18' E 007°24'0 0.0 220 / 14 gusting 181016.1 1.3 7.4 5.8
2014-Nov-17 09:00N 67°18' E 007°24'0 0.0 200 / 141016.3 1.5 8.0 6.2
2014-Nov-17 06:00N 67°18' E 007°24'0 0.0 200 / 15 gusting 161016.1 1.4 8.0 5.5
2014-Nov-17 03:00N 67°18' E 007°24'0 0.0 180 / 131016.9 1.2 7.9 6.2
2014-Nov-17 00:00N 67°18' E 007°24'0 0.0 160 / 13 gusting 161017.6 1.4 7.7 4.9
2014-Nov-16 21:00N 67°18' E 007°24'0 0.0 130 / 121018.5 1.5 7.3 5.4
2014-Nov-16 18:00N 67°18' E 007°24'0 0.0 100 / 12 gusting 181019.6 1.6 7.2 5.1
2014-Nov-16 15:00N 67°18' E 007°24'0 0.0 090 / 121020.1 1.7 7.0 5.0
2014-Nov-16 12:00N 67°18' E 007°24'0 0.0 080 / 12 gusting 201020.6 1.9 6.4 4.2
2014-Nov-16 09:00N 67°18' E 007°24'0 0.0 090 / 141021.1 2.0 6.6 4.4
2014-Nov-16 06:00N 67°18' E 007°24'0 0.0 090 / 15 gusting 201020.6 2.1 6.8 4.1
2014-Nov-16 03:00N 67°18' E 007°24'0 0.0 080 / 171020.3 1.9 7.3 5.4
2014-Nov-16 00:00N 67°18' E 007°24'0 0.0 120 / 12 gusting 171020.8 1.9 7.9 6.1
2014-Nov-15 21:00N 67°18' E 007°24'0 0.0 110 / 121020.8 1.9 8.0 6.2
2014-Nov-15 18:00N 67°18' E 007°24'0 0.0 110 / 12 gusting 181020.4 1.7 8.0 5.6
2014-Nov-15 15:00N 67°18' E 007°24'0 0.0 130 / 121020.0 1.7 8.1 4.6
2014-Nov-15 12:00N 67°18' E 007°24'0 0.0 130 / 13 gusting 181019.8 1.5 8.2 5.4
2014-Nov-15 09:00N 67°18' E 007°24'0 0.0 110 / 111020.2 1.7 7.9 6.0
2014-Nov-15 06:00N 67°18' E 007°24'0 0.0 120 / 12 gusting 161020.0 1.6 7.5 5.4
2014-Nov-15 03:00N 67°18' E 007°24'0 0.0 110 / 131020.6 1.5 7.1 4.3
2014-Nov-15 00:00N 67°18' E 007°24'0 0.0 110 / 14 gusting 191021.6 1.7 6.8 3.6
2014-Nov-14 21:00N 67°18' E 007°24'0 0.0 090 / 141022.5 1.9 6.5 0.3
2014-Nov-14 18:00N 67°18' E 007°24'0 0.0 090 / 15 gusting 201022.9 1.9 6.6 0.1
2014-Nov-14 15:00N 67°18' E 007°24'0 0.0 060 / 151023.8 1.7 6.6 1.6
2014-Nov-14 12:00N 67°18' E 007°24'0 0.0 070 / 14 gusting 221024.8 1.9 5.8 0.3
2014-Nov-14 09:00N 67°18' E 007°24'0 0.0 080 / 141025.3 2.1 5.3 0.2
2014-Nov-14 06:00N 67°18' E 007°24'0 0.0 080 / 15 gusting 211025.6 1.9 5.1-1.1
2014-Nov-14 03:00N 67°18' E 007°24'   090 / 141025.6 2.3 5.2 0.8
Track history (hours):
 
Tides and Currents Weather Stations Pressure Air Temp Water Temp Dewpoint Dewpoint Depression Visibility Wind Speed Wind Dir Waves Ship Positions

West Navigator

Last reported at 2014-Nov-24 03:00 UTC. Time now 2014-Nov-24 04:03 UTC.
Position N 67°18' E 007°24'.

Length 253 m; draft 15 m.

MMSI: 370144000.

Wind from 130 at 16 knots

Waves 2.7 meters (9 feet), 10 second period

Barometer 1008.3 mb
Air temperature 7.2 ° C
Dewpoint 5.6 ° C

Date/timePositionNaut miles runAvg speedWind from/ knotsBaromVisibWave heightAir tempDewpointWater temp
2014-Nov-24 03:00N 67°18' E 007°24'0 0.0 130 / 161008.3 2.7 7.2 5.6
2014-Nov-24 00:00N 67°18' E 007°24'0 0.0 160 / 17 gusting 211009.2 2.6 7.2 6.5
2014-Nov-23 21:00N 67°18' E 007°24'0 0.0 140 / 131010.6 2.2 6.7 5.6
2014-Nov-23 18:00N 67°18' E 007°24'0 0.0 130 / 11 gusting 261012.2 2.8 6.2 3.9
2014-Nov-23 15:10N 67°18' E 007°24'0 0.0 160 / 171013.5 3.0 6.2 2.9
2014-Nov-23 12:00N 67°18' E 007°24'0 0.0 170 / 21 gusting 301014.9 2.7 5.8 2.2
2014-Nov-23 09:00N 67°18' E 007°24'0 0.0 150 / 221016.7 2.4 6.3 1.5
2014-Nov-23 06:00N 67°18' E 007°24'0 0.0 150 / 21 gusting 261018.3 1.6 6.9 3.0
2014-Nov-23 03:00N 67°18' E 007°24'0 0.0 150 / 171019.9 1.1 6.9 3.1
2014-Nov-23 00:00N 67°18' E 007°24'0 0.0 150 / 14 gusting 231021.5 1.0 6.8 3.7
2014-Nov-22 21:00N 67°18' E 007°24'0 0.0 130 / 61023.2 0.9 6.7 4.3
2014-Nov-22 18:00N 67°18' E 007°24'0 0.0 080 / 11 gusting 161024.1 0.8 7.6 5.1
2014-Nov-22 15:00N 67°18' E 007°24'0 0.0 060 / 131025.4 0.9 7.3 5.3
2014-Nov-22 12:00N 67°18' E 007°24'0 0.0 060 / 11 gusting 131026.1 0.9 7.6 4.5
2014-Nov-22 09:00N 67°18' E 007°24'0 0.0 060 / 81026.6 1.0 7.8 4.8
2014-Nov-22 06:00N 67°18' E 007°24'0 0.0 360 / 6 gusting 81026.4 1.0 7.5 5.7
2014-Nov-22 03:00N 67°18' E 007°24'0 0.0 360 / 51026.6 1.4 7.7 5.2
2014-Nov-22 00:00N 67°18' E 007°24'0 0.0 330 / 6 gusting 131026.9 1.1 7.5 5.3
2014-Nov-21 21:00N 67°18' E 007°24'0 0.0 300 / 91027.0 1.1 7.7 5.1
2014-Nov-21 18:00N 67°18' E 007°24'0 0.0 300 / 10 gusting 151026.8 1.2 7.8 5.3
2014-Nov-21 15:00N 67°18' E 007°24'0 0.0 270 / 121026.6 1.3 7.9 6.1
2014-Nov-21 12:00N 67°18' E 007°24'0 0.0 270 / 12 gusting 201027.1 1.6 8.3 4.9
2014-Nov-21 09:00N 67°18' E 007°24'0 0.0 270 / 141027.6 1.5 8.0 5.4
2014-Nov-21 06:00N 67°18' E 007°24'0 0.0 250 / 15 gusting 191026.7 1.6 8.1 5.9
2014-Nov-21 03:00N 67°18' E 007°24'0 0.0 260 / 141026.9 1.6 8.2 6.3
2014-Nov-21 00:00N 67°18' E 007°24'0 0.0 270 / 15 gusting 221027.3 1.3 8.3 5.5
2014-Nov-20 21:00N 67°18' E 007°24'0 0.0 270 / 171026.8 1.1 8.4 6.2
2014-Nov-20 18:00N 67°18' E 007°24'0 0.0 240 / 17 gusting 221026.9 0.9 8.6 7.3
2014-Nov-20 15:00N 67°18' E 007°24'0 0.0 240 / 141027.0 0.9 8.6 7.9
2014-Nov-20 12:00N 67°18' E 007°24'0 0.0 240 / 14 gusting 221027.2 0.8 8.5 7.5
2014-Nov-20 09:00N 67°18' E 007°24'0 0.0 210 / 81027.5 0.8 8.0 6.9
2014-Nov-20 06:00N 67°18' E 007°24'0 0.0 230 / 10 gusting 151027.2 0.8 7.4 6.5
2014-Nov-20 03:00N 67°18' E 007°24'0 0.0 180 / 131028.0 0.9 6.6 6.0
2014-Nov-20 00:00N 67°18' E 007°24'0 0.0 190 / 7 gusting 121029.0 0.9 6.8 3.5
2014-Nov-19 21:00N 67°18' E 007°24'0 0.0 170 / 91029.2 0.9 7.0 2.8
2014-Nov-19 18:00N 67°18' E 007°24'0 0.0 180 / 9 gusting 121029.7 1.1 6.7 3.2
2014-Nov-19 15:10N 67°18' E 007°24'0 0.0 170 / 111029.7 1.0 6.4 4.8
2014-Nov-19 12:00N 67°18' E 007°24'0 0.0 180 / 6 gusting 141029.6 0.9 7.1 3.5
2014-Nov-19 09:00N 67°18' E 007°24'0 0.0 160 / 61029.3 0.9 7.5 4.3
2014-Nov-19 06:00N 67°18' E 007°24'0 0.0 120 / 3 gusting 81028.4 0.8 8.0 4.5
2014-Nov-19 03:00N 67°18' E 007°24'0 0.0 200 / 11028.4 2.2 6.9 5.7
2014-Nov-19 00:00N 67°18' E 007°24'0 0.0 180 / 7 gusting 111027.8 0.8 6.7 6.0
2014-Nov-18 21:00N 67°18' E 007°24'0 0.0 190 / 71027.3 0.7 7.3 5.7
2014-Nov-18 18:00N 67°18' E 007°24'0 0.0 180 / 9 gusting 101026.5 0.8 7.4 6.2
2014-Nov-18 15:00N 67°18' E 007°24'0 0.0 220 / 61025.8 0.7 7.2 6.8
2014-Nov-18 12:00N 67°18' E 007°24'0 0.0 220 / 8 gusting 111024.6 0.8 7.6 6.7
2014-Nov-18 09:00N 67°18' E 007°24'0 0.0 190 / 101023.4 0.8 7.4 6.4
2014-Nov-18 06:00N 67°18' E 007°24'0 0.0 180 / 7 gusting 121021.9 0.8 7.6 5.7
2014-Nov-18 03:00N 67°18' E 007°24'0 0.0 260 / 71021.0 0.8 7.3 5.6
2014-Nov-18 00:00N 67°18' E 007°24'0 0.0 280 / 9 gusting 161019.9 0.9 7.4 5.8
2014-Nov-17 21:00N 67°18' E 007°24'0 0.0 260 / 121018.6 0.9 7.5 5.7
2014-Nov-17 18:00N 67°18' E 007°24'0 0.0 240 / 11 gusting 191017.5 1.0 7.5 5.3
2014-Nov-17 15:00N 67°18' E 007°24'0 0.0 270 / 141016.7 1.2 7.4 5.0
2014-Nov-17 12:00N 67°18' E 007°24'0 0.0 220 / 14 gusting 181016.1 1.3 7.4 5.8
2014-Nov-17 09:00N 67°18' E 007°24'0 0.0 200 / 141016.3 1.5 8.0 6.2
2014-Nov-17 06:00N 67°18' E 007°24'0 0.0 200 / 15 gusting 161016.1 1.4 8.0 5.5
2014-Nov-17 03:00N 67°18' E 007°24'0 0.0 180 / 131016.9 1.2 7.9 6.2
2014-Nov-17 00:00N 67°18' E 007°24'0 0.0 160 / 13 gusting 161017.6 1.4 7.7 4.9
2014-Nov-16 21:00N 67°18' E 007°24'0 0.0 130 / 121018.5 1.5 7.3 5.4
2014-Nov-16 18:00N 67°18' E 007°24'0 0.0 100 / 12 gusting 181019.6 1.6 7.2 5.1
2014-Nov-16 15:00N 67°18' E 007°24'0 0.0 090 / 121020.1 1.7 7.0 5.0
2014-Nov-16 12:00N 67°18' E 007°24'0 0.0 080 / 12 gusting 201020.6 1.9 6.4 4.2
2014-Nov-16 09:00N 67°18' E 007°24'0 0.0 090 / 141021.1 2.0 6.6 4.4
2014-Nov-16 06:00N 67°18' E 007°24'0 0.0 090 / 15 gusting 201020.6 2.1 6.8 4.1
2014-Nov-16 03:00N 67°18' E 007°24'0 0.0 080 / 171020.3 1.9 7.3 5.4
2014-Nov-16 00:00N 67°18' E 007°24'0 0.0 120 / 12 gusting 171020.8 1.9 7.9 6.1
2014-Nov-15 21:00N 67°18' E 007°24'0 0.0 110 / 121020.8 1.9 8.0 6.2
2014-Nov-15 18:00N 67°18' E 007°24'0 0.0 110 / 12 gusting 181020.4 1.7 8.0 5.6
2014-Nov-15 15:00N 67°18' E 007°24'0 0.0 130 / 121020.0 1.7 8.1 4.6
2014-Nov-15 12:00N 67°18' E 007°24'0 0.0 130 / 13 gusting 181019.8 1.5 8.2 5.4
2014-Nov-15 09:00N 67°18' E 007°24'0 0.0 110 / 111020.2 1.7 7.9 6.0
2014-Nov-15 06:00N 67°18' E 007°24'0 0.0 120 / 12 gusting 161020.0 1.6 7.5 5.4
2014-Nov-15 03:00N 67°18' E 007°24'0 0.0 110 / 131020.6 1.5 7.1 4.3
2014-Nov-15 00:00N 67°18' E 007°24'0 0.0 110 / 14 gusting 191021.6 1.7 6.8 3.6
2014-Nov-14 21:00N 67°18' E 007°24'0 0.0 090 / 141022.5 1.9 6.5 0.3
2014-Nov-14 18:00N 67°18' E 007°24'0 0.0 090 / 15 gusting 201022.9 1.9 6.6 0.1
2014-Nov-14 15:00N 67°18' E 007°24'0 0.0 060 / 151023.8 1.7 6.6 1.6
2014-Nov-14 12:00N 67°18' E 007°24'0 0.0 070 / 14 gusting 221024.8 1.9 5.8 0.3
2014-Nov-14 09:00N 67°18' E 007°24'0 0.0 080 / 141025.3 2.1 5.3 0.2
2014-Nov-14 06:00N 67°18' E 007°24'0 0.0 080 / 15 gusting 211025.6 1.9 5.1-1.1
2014-Nov-14 03:00N 67°18' E 007°24'   090 / 141025.6 2.3 5.2 0.8

Dump ship's entire track history